Huvudsida
METAR-TAF:

METAR-TAF

Flygplatser :

Beja, Portugal

latitud: 38-04-40N, longitud: 007-55-57W, höjd: 193 m

Aktuellt väderrapport

Denna rapport gjordes för 15 minuter sedan, klockan 05:00 UTC
Vind 3 kt från syd
Temperatur 21°C
Fuktighet 53%
Tryck 1017 hPa
Sikt 10 km eller mer
Inga moln under 1 500 m eller inga cumulonimbus

METAR: LPBJ 230500Z 19003KT CAVOK 21/11 Q1017

Tid: 06:15 (05:15 UTC)

Väderprognos

Denna rapport gjordes för 6 timmar och 13 minuter sedan, klockan 23:02 UTC
Prognos gäller från 23 kl. 00 UTC till 23 kl. 24 UTC
Vind 5 kt från väst/sydväst
Sikt 10 km eller mer
Inga moln under 1 500 m eller inga cumulonimbus
Blir
från 23 kl. 16 UTC till 23 kl. 18 UTC
Vind 10 kt från nordväst
Blir
från 23 kl. 22 UTC till 23 kl. 24 UTC
Vind 2 kt varierande vindriktning

TAF: LPBJ 222302Z 2300/2324 24005KT CAVOK BECMG 2316/2318 31010KT BECMG 2322/2324 VRB02KT

Aktuella väderrapporter och prognoser från 4000 flygplatser (METAR- och TAF-rapporter).

De tillgängliga stationerna syns som gula och röda prickar på kartan.

För musen över prickarna för att se namnen på stationerna.

Klicka sedan för att få väderrapporter och prognoser.

För att ändra kartan: Klicka på de gröna knapparna med ett svart kors på för att zooma in; den gröna knappen med ett streck på för att zooma ut; eller på de gröna pilarna för angränsande kartor.


METAR-TAF: